x

Destruction Island, Wa (desw1) Weather Station

9:00 - Mon 26th Jun 2017 All times are PDT. -7 hours from GMT.

  • Wind
    14mph, 16mph gusts
  • Luft Temp 54°f
  • Sea Pressure 1015.8mb
  • Destruction Island, Wa
  • Destruction Island, Wa

More Historic Weather Station data

Upgrade to MSW Pro to gain access to the past 30 days of data for over 8000 Wavebouys and Weather Stations around the globe.

Join Pro

Comparision Forecast

View Surf forecast
   
Mo 06/26 9:00 14 16 mph 1015.8mb 54f
8:00 18 21 mph 1015.2mb 54f
7:00 18 20 mph 1015.2mb 53f
6:00 17 18 mph 1015.2mb 54f
5:00 17 20 mph 1015.5mb 54f
4:00 9 10 mph 1015.6mb 55f
3:00 9 10 mph 1015.6mb 55f
2:00 9 10 mph 1015.7mb 55f
1:00 11 13 mph 1015.8mb 55f
12:00 23 24 mph 1013.9mb 55f
So 06/25 11:00 16 18 mph 1013.1mb 55f
10:00 26 29 mph 1012.7mb 56f
9:00 25 26 mph 1012.7mb 56f
8:00 30 32 mph 1012.6mb 56f
7:00 32 34 mph 1012.4mb 56f
6:00 33 38 mph 1012.2mb 57f
5:00 32 36 mph 1012.3mb 57f
4:00 24 28 mph 1012.9mb 57f
3:00 16 18 mph 1013.3mb 58f
2:00 11 14 mph 1013.2mb 58f
1:00 13 15 mph 1013.4mb 58f
12:00 8 8 mph 1013.2mb 60f
11:00 9 10 mph 1013.3mb 58f
10:00 7 7 mph 1013.1mb 59f
9:00 5 5 mph 1013mb 61f
8:00  -  1 mph 1012.9mb 62f
7:00 10 10 mph 1012.8mb 66f
6:00 8 8 mph 1013mb 64f
5:00 8 8 mph 1013mb 67f
4:00 3 5 mph 1013.2mb 65f
3:00 3 5 mph 1013.7mb 58f
2:00 5 6 mph 1013.8mb 62f
1:00 5 5 mph 1013.8mb 66f
12:00 13 13 mph 1014.2mb 64f
Sa 06/24 11:00 15 15 mph 1014.3mb 59f
10:00 17 17 mph 1014.6mb 58f
9:00 16 17 mph 1014.7mb 61f
8:00 20 21 mph 1014.8mb 62f
7:00 15 17 mph 1015.2mb 63f
6:00 15 16 mph 1016.1mb 65f
5:00 9 11 mph 1016.8mb 65f
4:00 8 8 mph 1017.5mb 63f
3:00 9 10 mph 1017.9mb 62f
2:00 9 9 mph 1018.4mb 62f
1:00 7 7 mph 1019mb 61f
12:00 7 7 mph 1019.5mb 62f
11:00 6 7 mph 1019.8mb 64f
10:00 7 8 mph 1019.8mb 64f
9:00 6 7 mph 1019.8mb 64f
8:00 5 6 mph 1019.9mb 64f
7:00 6 7 mph 1019.9mb 60f
6:00 6 7 mph 1019.8mb 60f
5:00 13 13 mph 1019.4mb 59f
4:00 9 10 mph 1019.6mb 61f
3:00 5 5 mph 1019.8mb 59f
2:00 6 6 mph 1020mb 60f
1:00 6 6 mph 1020mb 65f
12:00 15 16 mph 1020.1mb 58f
Fr 06/23 11:00 23 23 mph 1019.9mb 62f
10:00 28 28 mph 1019.8mb 61f
9:00 29 30 mph 1019.5mb 60f
8:00 30 31 mph 1019.8mb 60f
7:00 31 32 mph 1019.9mb 59f
6:00 30 32 mph 1020.3mb 58f
5:00 31 33 mph 1020.9mb 59f
4:00 8 11 mph 1021.9mb 60f
3:00 8 9 mph 1022.4mb 60f
2:00 8 9 mph 1022.8mb 59f
1:00 7 8 mph 1023mb 57f
12:00 7 7 mph 1023.1mb 57f
11:00 5 6 mph 1023.4mb 57f
10:00 1 2 mph 1023.4mb 57f
9:00  -  0 mph 1023.6mb 57f
8:00  -  2 mph 1023.6mb 56f
7:00 2 2 mph 1023.5mb 53f
6:00 5 5 mph 1023.4mb 53f
5:00 5 5 mph 1023.3mb 53f
4:00 11 13 mph 1023.7mb 53f
3:00 10 11 mph 1023.7mb 53f
2:00 16 17 mph 1023.6mb 54f
1:00 14 14 mph 1023.8mb 54f
12:00 21 22 mph 1024.1mb 55f
Do 06/22 11:00 25 26 mph 1024.2mb 55f
10:00 26 28 mph 1024.1mb 55f
9:00 25 26 mph 1024.2mb 55f
8:00 29 31 mph 1024.2mb 56f
7:00 28 30 mph 1024.3mb 56f
6:00 25 29 mph 1024.4mb 57f